sensor_id;sensor_type;location;lat;lon;timestamp;P1;durP1;ratioP1;P2;durP2;ratioP2
63005;SDS011;53704;52.532;6.426;2022-12-29T00:01:35;3.47;;;3.05;;
63005;SDS011;53704;52.532;6.426;2022-12-29T00:04:01;4.40;;;3.20;;
63005;SDS011;53704;52.532;6.426;2022-12-29T00:06:27;5.90;;;3.42;;
63005;SDS011;53704;52.532;6.426;2022-12-29T00:08:53;4.97;;;3.60;;
63005;SDS011;53704;52.532;6.426;2022-12-29T00:11:21;4.10;;;3.80;;
63005;SDS011;53704;52.532;6.426;2022-12-29T00:13:48;5.78;;;3.30;;
63005;SDS011;53704;52.532;6.426;2022-12-29T00:16:32;4.55;;;3.78;;
63005;SDS011;53704;52.532;6.426;2022-12-29T00:18:59;3.72;;;3.53;;
63005;SDS011;53704;52.532;6.426;2022-12-29T00:21:25;3.40;;;3.10;;
63005;SDS011;53704;52.532;6.426;2022-12-29T00:24:14;3.80;;;3.50;;
63005;SDS011;53704;52.532;6.426;2022-12-29T00:29:46;5.97;;;3.03;;
63005;SDS011;53704;52.532;6.426;2022-12-29T00:32:30;3.50;;;3.20;;
63005;SDS011;53704;52.532;6.426;2022-12-29T00:35:20;3.43;;;3.23;;
63005;SDS011;53704;52.532;6.426;2022-12-29T00:37:46;3.35;;;3.15;;
63005;SDS011;53704;52.532;6.426;2022-12-29T00:40:31;3.97;;;3.28;;
63005;SDS011;53704;52.532;6.426;2022-12-29T00:43:15;4.30;;;3.13;;
63005;SDS011;53704;52.532;6.426;2022-12-29T00:45:59;3.10;;;2.90;;
63005;SDS011;53704;52.532;6.426;2022-12-29T00:48:24;4.47;;;2.90;;
63005;SDS011;53704;52.532;6.426;2022-12-29T00:51:08;2.70;;;2.60;;
63005;SDS011;53704;52.532;6.426;2022-12-29T00:53:34;3.22;;;3.03;;
63005;SDS011;53704;52.532;6.426;2022-12-29T00:56:00;3.10;;;2.83;;
63005;SDS011;53704;52.532;6.426;2022-12-29T00:58:29;2.88;;;2.67;;
63005;SDS011;53704;52.532;6.426;2022-12-29T01:01:07;2.63;;;2.42;;
63005;SDS011;53704;52.532;6.426;2022-12-29T01:03:34;3.00;;;2.85;;
63005;SDS011;53704;52.532;6.426;2022-12-29T01:06:01;2.90;;;2.70;;
63005;SDS011;53704;52.532;6.426;2022-12-29T01:08:31;3.00;;;2.80;;
63005;SDS011;53704;52.532;6.426;2022-12-29T01:10:58;3.03;;;2.67;;
63005;SDS011;53704;52.532;6.426;2022-12-29T01:13:25;3.50;;;3.20;;
63005;SDS011;53704;52.532;6.426;2022-12-29T01:15:51;2.33;;;2.13;;
63005;SDS011;53704;52.532;6.426;2022-12-29T01:18:17;3.25;;;2.97;;
63005;SDS011;53704;52.532;6.426;2022-12-29T01:20:42;3.33;;;3.03;;
63005;SDS011;53704;52.532;6.426;2022-12-29T01:23:08;2.50;;;2.40;;
63005;SDS011;53704;52.532;6.426;2022-12-29T01:25:33;4.10;;;3.00;;
63005;SDS011;53704;52.532;6.426;2022-12-29T01:27:59;4.65;;;3.00;;
63005;SDS011;53704;52.532;6.426;2022-12-29T01:30:24;3.67;;;2.70;;
63005;SDS011;53704;52.532;6.426;2022-12-29T01:32:49;2.58;;;2.47;;
63005;SDS011;53704;52.532;6.426;2022-12-29T01:35:15;3.00;;;2.70;;
63005;SDS011;53704;52.532;6.426;2022-12-29T01:37:40;4.45;;;2.80;;
63005;SDS011;53704;52.532;6.426;2022-12-29T01:40:06;2.95;;;2.75;;
63005;SDS011;53704;52.532;6.426;2022-12-29T01:42:32;3.13;;;2.80;;
63005;SDS011;53704;52.532;6.426;2022-12-29T01:44:58;7.47;;;2.35;;
63005;SDS011;53704;52.532;6.426;2022-12-29T01:50:08;2.97;;;2.55;;
63005;SDS011;53704;52.532;6.426;2022-12-29T01:52:59;4.40;;;2.65;;
63005;SDS011;53704;52.532;6.426;2022-12-29T01:55:29;2.53;;;2.30;;
63005;SDS011;53704;52.532;6.426;2022-12-29T01:58:00;2.55;;;2.45;;
63005;SDS011;53704;52.532;6.426;2022-12-29T02:00:30;3.10;;;2.63;;
63005;SDS011;53704;52.532;6.426;2022-12-29T02:02:56;2.53;;;2.38;;
63005;SDS011;53704;52.532;6.426;2022-12-29T02:05:44;3.20;;;2.45;;
63005;SDS011;53704;52.532;6.426;2022-12-29T02:08:15;2.63;;;2.40;;
63005;SDS011;53704;52.532;6.426;2022-12-29T02:10:40;2.47;;;2.28;;
63005;SDS011;53704;52.532;6.426;2022-12-29T02:13:07;3.75;;;2.17;;
63005;SDS011;53704;52.532;6.426;2022-12-29T02:27:18;2.47;;;2.28;;
63005;SDS011;53704;52.532;6.426;2022-12-29T02:32:36;2.28;;;2.08;;
63005;SDS011;53704;52.532;6.426;2022-12-29T02:35:35;5.05;;;1.77;;
63005;SDS011;53704;52.532;6.426;2022-12-29T02:38:20;2.22;;;1.77;;
63005;SDS011;53704;52.532;6.426;2022-12-29T02:40:58;2.10;;;2.00;;
63005;SDS011;53704;52.532;6.426;2022-12-29T02:51:10;1.63;;;1.50;;
63005;SDS011;53704;52.532;6.426;2022-12-29T02:53:59;2.13;;;1.17;;
63005;SDS011;53704;52.532;6.426;2022-12-29T02:56:43;1.87;;;1.40;;
63005;SDS011;53704;52.532;6.426;2022-12-29T02:59:09;2.47;;;1.45;;
63005;SDS011;53704;52.532;6.426;2022-12-29T03:19:19;1.90;;;1.50;;
63005;SDS011;53704;52.532;6.426;2022-12-29T03:22:10;5.90;;;1.45;;
63005;SDS011;53704;52.532;6.426;2022-12-29T03:24:59;1.38;;;1.27;;
63005;SDS011;53704;52.532;6.426;2022-12-29T03:27:32;2.38;;;1.45;;
63005;SDS011;53704;52.532;6.426;2022-12-29T03:30:05;1.20;;;1.02;;
63005;SDS011;53704;52.532;6.426;2022-12-29T03:32:33;3.35;;;1.60;;
63005;SDS011;53704;52.532;6.426;2022-12-29T03:35:04;8.18;;;1.30;;
63005;SDS011;53704;52.532;6.426;2022-12-29T03:37:32;2.47;;;1.33;;
63005;SDS011;53704;52.532;6.426;2022-12-29T03:40:04;1.48;;;0.98;;
63005;SDS011;53704;52.532;6.426;2022-12-29T03:42:31;2.70;;;1.20;;
63005;SDS011;53704;52.532;6.426;2022-12-29T03:44:58;5.53;;;1.00;;
63005;SDS011;53704;52.532;6.426;2022-12-29T03:47:24;2.15;;;0.90;;
63005;SDS011;53704;52.532;6.426;2022-12-29T03:49:50;2.08;;;0.82;;
63005;SDS011;53704;52.532;6.426;2022-12-29T03:52:17;8.02;;;0.80;;
63005;SDS011;53704;52.532;6.426;2022-12-29T03:54:42;1.23;;;0.85;;
63005;SDS011;53704;52.532;6.426;2022-12-29T03:57:09;1.17;;;0.82;;
63005;SDS011;53704;52.532;6.426;2022-12-29T03:59:35;2.50;;;0.80;;
63005;SDS011;53704;52.532;6.426;2022-12-29T04:02:01;1.33;;;0.60;;
63005;SDS011;53704;52.532;6.426;2022-12-29T04:04:26;2.08;;;1.15;;
63005;SDS011;53704;52.532;6.426;2022-12-29T04:06:51;2.10;;;1.10;;
63005;SDS011;53704;52.532;6.426;2022-12-29T04:09:17;0.82;;;0.70;;
63005;SDS011;53704;52.532;6.426;2022-12-29T04:11:42;6.40;;;0.90;;
63005;SDS011;53704;52.532;6.426;2022-12-29T04:14:08;3.80;;;0.95;;
63005;SDS011;53704;52.532;6.426;2022-12-29T04:16:33;6.38;;;1.00;;
63005;SDS011;53704;52.532;6.426;2022-12-29T04:19:01;2.22;;;1.10;;
63005;SDS011;53704;52.532;6.426;2022-12-29T04:21:26;5.88;;;0.70;;
63005;SDS011;53704;52.532;6.426;2022-12-29T04:23:52;1.67;;;0.80;;
63005;SDS011;53704;52.532;6.426;2022-12-29T04:26:20;1.73;;;0.80;;
63005;SDS011;53704;52.532;6.426;2022-12-29T04:28:45;2.15;;;0.93;;
63005;SDS011;53704;52.532;6.426;2022-12-29T04:31:11;1.40;;;0.80;;
63005;SDS011;53704;52.532;6.426;2022-12-29T04:33:36;2.85;;;0.90;;
63005;SDS011;53704;52.532;6.426;2022-12-29T04:36:01;3.33;;;0.90;;
63005;SDS011;53704;52.532;6.426;2022-12-29T04:38:27;4.80;;;0.93;;
63005;SDS011;53704;52.532;6.426;2022-12-29T04:40:52;1.42;;;0.80;;
63005;SDS011;53704;52.532;6.426;2022-12-29T04:43:18;2.40;;;0.98;;
63005;SDS011;53704;52.532;6.426;2022-12-29T04:45:47;4.80;;;0.98;;
63005;SDS011;53704;52.532;6.426;2022-12-29T04:48:12;4.18;;;1.25;;
63005;SDS011;53704;52.532;6.426;2022-12-29T04:50:38;1.75;;;1.02;;
63005;SDS011;53704;52.532;6.426;2022-12-29T04:53:04;5.30;;;1.02;;
63005;SDS011;53704;52.532;6.426;2022-12-29T04:55:29;3.95;;;1.38;;
63005;SDS011;53704;52.532;6.426;2022-12-29T04:57:55;1.65;;;0.88;;
63005;SDS011;53704;52.532;6.426;2022-12-29T05:00:20;1.58;;;0.80;;
63005;SDS011;53704;52.532;6.426;2022-12-29T05:02:46;3.42;;;1.10;;
63005;SDS011;53704;52.532;6.426;2022-12-29T05:05:12;6.28;;;1.10;;
63005;SDS011;53704;52.532;6.426;2022-12-29T05:07:37;2.20;;;0.95;;
63005;SDS011;53704;52.532;6.426;2022-12-29T05:10:03;0.95;;;0.57;;
63005;SDS011;53704;52.532;6.426;2022-12-29T05:12:32;2.05;;;1.00;;
63005;SDS011;53704;52.532;6.426;2022-12-29T05:15:00;2.88;;;0.88;;
63005;SDS011;53704;52.532;6.426;2022-12-29T05:17:27;3.35;;;0.95;;
63005;SDS011;53704;52.532;6.426;2022-12-29T05:19:53;3.85;;;1.02;;
63005;SDS011;53704;52.532;6.426;2022-12-29T05:22:18;4.32;;;1.10;;
63005;SDS011;53704;52.532;6.426;2022-12-29T05:24:44;3.67;;;1.20;;
63005;SDS011;53704;52.532;6.426;2022-12-29T05:27:09;2.40;;;1.08;;
63005;SDS011;53704;52.532;6.426;2022-12-29T05:29:35;2.90;;;1.17;;
63005;SDS011;53704;52.532;6.426;2022-12-29T05:32:00;4.88;;;1.38;;
63005;SDS011;53704;52.532;6.426;2022-12-29T05:34:25;5.97;;;1.42;;
63005;SDS011;53704;52.532;6.426;2022-12-29T05:36:51;7.82;;;1.65;;
63005;SDS011;53704;52.532;6.426;2022-12-29T05:39:16;4.03;;;1.20;;
63005;SDS011;53704;52.532;6.426;2022-12-29T05:41:42;7.70;;;1.48;;
63005;SDS011;53704;52.532;6.426;2022-12-29T05:44:07;6.60;;;1.20;;
63005;SDS011;53704;52.532;6.426;2022-12-29T05:46:33;5.97;;;0.98;;
63005;SDS011;53704;52.532;6.426;2022-12-29T05:48:58;6.00;;;1.95;;
63005;SDS011;53704;52.532;6.426;2022-12-29T05:51:23;7.68;;;1.60;;
63005;SDS011;53704;52.532;6.426;2022-12-29T05:53:49;10.25;;;1.30;;
63005;SDS011;53704;52.532;6.426;2022-12-29T05:56:15;9.05;;;1.73;;
63005;SDS011;53704;52.532;6.426;2022-12-29T05:58:40;4.25;;;1.73;;
63005;SDS011;53704;52.532;6.426;2022-12-29T06:01:06;7.78;;;1.50;;
63005;SDS011;53704;52.532;6.426;2022-12-29T06:03:31;4.88;;;1.15;;
63005;SDS011;53704;52.532;6.426;2022-12-29T06:05:57;4.95;;;1.35;;
63005;SDS011;53704;52.532;6.426;2022-12-29T06:08:22;13.73;;;1.58;;
63005;SDS011;53704;52.532;6.426;2022-12-29T06:10:47;9.50;;;1.45;;
63005;SDS011;53704;52.532;6.426;2022-12-29T06:13:14;4.93;;;1.75;;
63005;SDS011;53704;52.532;6.426;2022-12-29T06:15:40;8.73;;;1.77;;
63005;SDS011;53704;52.532;6.426;2022-12-29T06:18:06;12.07;;;1.77;;
63005;SDS011;53704;52.532;6.426;2022-12-29T06:20:31;9.98;;;2.13;;
63005;SDS011;53704;52.532;6.426;2022-12-29T06:22:57;12.02;;;3.00;;
63005;SDS011;53704;52.532;6.426;2022-12-29T06:25:22;9.32;;;2.05;;
63005;SDS011;53704;52.532;6.426;2022-12-29T06:27:48;6.05;;;1.67;;
63005;SDS011;53704;52.532;6.426;2022-12-29T06:30:13;12.32;;;2.25;;
63005;SDS011;53704;52.532;6.426;2022-12-29T06:32:39;12.10;;;2.58;;
63005;SDS011;53704;52.532;6.426;2022-12-29T06:35:05;10.73;;;1.92;;
63005;SDS011;53704;52.532;6.426;2022-12-29T06:37:31;11.00;;;1.88;;
63005;SDS011;53704;52.532;6.426;2022-12-29T06:39:57;11.80;;;2.72;;
63005;SDS011;53704;52.532;6.426;2022-12-29T06:42:22;13.57;;;2.55;;
63005;SDS011;53704;52.532;6.426;2022-12-29T06:44:48;22.00;;;2.60;;
63005;SDS011;53704;52.532;6.426;2022-12-29T06:47:14;14.27;;;2.28;;
63005;SDS011;53704;52.532;6.426;2022-12-29T06:49:39;13.55;;;2.65;;
63005;SDS011;53704;52.532;6.426;2022-12-29T06:52:05;14.35;;;2.60;;
63005;SDS011;53704;52.532;6.426;2022-12-29T06:54:30;8.70;;;2.08;;
63005;SDS011;53704;52.532;6.426;2022-12-29T06:56:56;17.45;;;2.40;;
63005;SDS011;53704;52.532;6.426;2022-12-29T06:59:22;14.32;;;2.15;;
63005;SDS011;53704;52.532;6.426;2022-12-29T07:01:47;14.45;;;1.92;;
63005;SDS011;53704;52.532;6.426;2022-12-29T07:04:13;10.57;;;1.85;;
63005;SDS011;53704;52.532;6.426;2022-12-29T07:06:38;13.60;;;2.63;;
63005;SDS011;53704;52.532;6.426;2022-12-29T07:09:05;12.82;;;2.13;;
63005;SDS011;53704;52.532;6.426;2022-12-29T07:11:31;10.43;;;2.08;;
63005;SDS011;53704;52.532;6.426;2022-12-29T07:13:56;8.23;;;1.58;;
63005;SDS011;53704;52.532;6.426;2022-12-29T07:16:22;11.93;;;1.73;;
63005;SDS011;53704;52.532;6.426;2022-12-29T07:18:47;14.55;;;2.15;;
63005;SDS011;53704;52.532;6.426;2022-12-29T07:21:13;7.70;;;1.90;;
63005;SDS011;53704;52.532;6.426;2022-12-29T07:23:39;7.22;;;1.80;;
63005;SDS011;53704;52.532;6.426;2022-12-29T07:26:06;13.23;;;2.40;;
63005;SDS011;53704;52.532;6.426;2022-12-29T07:28:34;6.90;;;1.83;;
63005;SDS011;53704;52.532;6.426;2022-12-29T07:31:00;7.40;;;1.42;;
63005;SDS011;53704;52.532;6.426;2022-12-29T07:33:29;6.35;;;1.67;;
63005;SDS011;53704;52.532;6.426;2022-12-29T07:35:55;8.68;;;2.30;;
63005;SDS011;53704;52.532;6.426;2022-12-29T07:38:21;13.60;;;2.65;;
63005;SDS011;53704;52.532;6.426;2022-12-29T07:40:47;7.40;;;1.33;;
63005;SDS011;53704;52.532;6.426;2022-12-29T07:43:12;12.00;;;1.88;;
63005;SDS011;53704;52.532;6.426;2022-12-29T07:45:37;21.58;;;2.05;;
63005;SDS011;53704;52.532;6.426;2022-12-29T07:48:04;15.77;;;2.10;;
63005;SDS011;53704;52.532;6.426;2022-12-29T07:50:32;11.55;;;2.10;;
63005;SDS011;53704;52.532;6.426;2022-12-29T07:52:59;13.45;;;2.55;;
63005;SDS011;53704;52.532;6.426;2022-12-29T07:55:24;6.65;;;1.63;;
63005;SDS011;53704;52.532;6.426;2022-12-29T07:57:49;15.45;;;1.90;;
63005;SDS011;53704;52.532;6.426;2022-12-29T08:00:18;8.85;;;2.33;;
63005;SDS011;53704;52.532;6.426;2022-12-29T08:02:44;7.20;;;1.50;;
63005;SDS011;53704;52.532;6.426;2022-12-29T08:05:09;7.00;;;1.73;;
63005;SDS011;53704;52.532;6.426;2022-12-29T08:07:34;6.05;;;1.40;;
63005;SDS011;53704;52.532;6.426;2022-12-29T08:10:00;7.85;;;1.80;;
63005;SDS011;53704;52.532;6.426;2022-12-29T08:12:26;13.07;;;2.33;;
63005;SDS011;53704;52.532;6.426;2022-12-29T08:14:52;4.57;;;1.55;;
63005;SDS011;53704;52.532;6.426;2022-12-29T08:17:17;10.93;;;1.77;;
63005;SDS011;53704;52.532;6.426;2022-12-29T08:19:42;15.65;;;2.47;;
63005;SDS011;53704;52.532;6.426;2022-12-29T08:22:08;8.32;;;1.92;;
63005;SDS011;53704;52.532;6.426;2022-12-29T08:24:34;10.52;;;1.98;;
63005;SDS011;53704;52.532;6.426;2022-12-29T08:26:59;7.47;;;1.95;;
63005;SDS011;53704;52.532;6.426;2022-12-29T08:29:25;7.30;;;1.60;;
63005;SDS011;53704;52.532;6.426;2022-12-29T08:31:50;8.10;;;1.83;;
63005;SDS011;53704;52.532;6.426;2022-12-29T08:34:15;4.88;;;1.38;;
63005;SDS011;53704;52.532;6.426;2022-12-29T08:36:41;6.40;;;1.10;;
63005;SDS011;53704;52.532;6.426;2022-12-29T08:39:07;5.38;;;1.40;;
63005;SDS011;53704;52.532;6.426;2022-12-29T08:41:33;11.45;;;2.17;;
63005;SDS011;53704;52.532;6.426;2022-12-29T08:43:58;11.25;;;2.22;;
63005;SDS011;53704;52.532;6.426;2022-12-29T08:46:23;9.40;;;1.80;;
63005;SDS011;53704;52.532;6.426;2022-12-29T08:48:49;5.75;;;1.65;;
63005;SDS011;53704;52.532;6.426;2022-12-29T08:51:14;8.13;;;2.65;;
63005;SDS011;53704;52.532;6.426;2022-12-29T08:53:40;8.18;;;1.50;;
63005;SDS011;53704;52.532;6.426;2022-12-29T08:56:05;10.38;;;1.67;;
63005;SDS011;53704;52.532;6.426;2022-12-29T08:58:33;8.90;;;1.88;;
63005;SDS011;53704;52.532;6.426;2022-12-29T09:00:58;9.98;;;2.25;;
63005;SDS011;53704;52.532;6.426;2022-12-29T09:03:24;14.75;;;2.58;;
63005;SDS011;53704;52.532;6.426;2022-12-29T09:05:51;4.10;;;1.52;;
63005;SDS011;53704;52.532;6.426;2022-12-29T09:08:18;6.57;;;2.13;;
63005;SDS011;53704;52.532;6.426;2022-12-29T09:10:44;4.90;;;1.92;;
63005;SDS011;53704;52.532;6.426;2022-12-29T09:13:10;7.13;;;1.63;;
63005;SDS011;53704;52.532;6.426;2022-12-29T09:15:37;7.32;;;1.77;;
63005;SDS011;53704;52.532;6.426;2022-12-29T09:18:03;7.80;;;1.88;;
63005;SDS011;53704;52.532;6.426;2022-12-29T09:20:29;8.43;;;2.10;;
63005;SDS011;53704;52.532;6.426;2022-12-29T09:22:54;7.78;;;2.10;;
63005;SDS011;53704;52.532;6.426;2022-12-29T09:25:19;7.15;;;1.90;;
63005;SDS011;53704;52.532;6.426;2022-12-29T09:27:46;15.25;;;2.30;;
63005;SDS011;53704;52.532;6.426;2022-12-29T09:30:13;9.02;;;2.47;;
63005;SDS011;53704;52.532;6.426;2022-12-29T09:32:39;11.15;;;2.60;;
63005;SDS011;53704;52.532;6.426;2022-12-29T09:35:05;7.65;;;1.80;;
63005;SDS011;53704;52.532;6.426;2022-12-29T09:37:31;8.77;;;1.63;;
63005;SDS011;53704;52.532;6.426;2022-12-29T09:39:57;11.70;;;2.20;;
63005;SDS011;53704;52.532;6.426;2022-12-29T09:42:23;9.95;;;2.25;;
63005;SDS011;53704;52.532;6.426;2022-12-29T09:45:03;12.38;;;3.25;;
63005;SDS011;53704;52.532;6.426;2022-12-29T09:47:41;14.02;;;2.17;;
63005;SDS011;53704;52.532;6.426;2022-12-29T09:50:30;18.80;;;2.60;;
63005;SDS011;53704;52.532;6.426;2022-12-29T09:55:52;18.17;;;2.72;;
63005;SDS011;53704;52.532;6.426;2022-12-29T10:03:26;10.10;;;2.28;;
63005;SDS011;53704;52.532;6.426;2022-12-29T10:08:44;14.02;;;1.88;;
63005;SDS011;53704;52.532;6.426;2022-12-29T10:11:46;7.65;;;1.75;;
63005;SDS011;53704;52.532;6.426;2022-12-29T10:22:42;10.93;;;2.08;;
63005;SDS011;53704;52.532;6.426;2022-12-29T10:25:20;10.20;;;1.90;;
63005;SDS011;53704;52.532;6.426;2022-12-29T10:27:49;7.85;;;2.17;;
63005;SDS011;53704;52.532;6.426;2022-12-29T10:30:18;15.18;;;2.33;;
63005;SDS011;53704;52.532;6.426;2022-12-29T10:32:56;17.45;;;2.50;;
63005;SDS011;53704;52.532;6.426;2022-12-29T10:35:30;16.15;;;2.75;;
63005;SDS011;53704;52.532;6.426;2022-12-29T10:41:02;13.90;;;2.38;;
63005;SDS011;53704;52.532;6.426;2022-12-29T10:43:43;7.35;;;1.63;;
63005;SDS011;53704;52.532;6.426;2022-12-29T10:46:18;16.13;;;3.63;;
63005;SDS011;53704;52.532;6.426;2022-12-29T10:48:47;14.05;;;2.25;;
63005;SDS011;53704;52.532;6.426;2022-12-29T10:51:20;12.73;;;2.38;;
63005;SDS011;53704;52.532;6.426;2022-12-29T10:56:34;20.90;;;3.35;;
63005;SDS011;53704;52.532;6.426;2022-12-29T10:59:13;10.07;;;2.42;;
63005;SDS011;53704;52.532;6.426;2022-12-29T11:01:47;17.08;;;2.92;;
63005;SDS011;53704;52.532;6.426;2022-12-29T11:04:25;12.25;;;2.03;;
63005;SDS011;53704;52.532;6.426;2022-12-29T11:06:54;11.25;;;2.20;;
63005;SDS011;53704;52.532;6.426;2022-12-29T11:09:23;12.95;;;2.00;;
63005;SDS011;53704;52.532;6.426;2022-12-29T11:11:52;20.10;;;3.20;;
63005;SDS011;53704;52.532;6.426;2022-12-29T11:14:19;11.00;;;1.80;;
63005;SDS011;53704;52.532;6.426;2022-12-29T11:17:00;13.93;;;2.50;;
63005;SDS011;53704;52.532;6.426;2022-12-29T11:19:28;8.43;;;1.88;;
63005;SDS011;53704;52.532;6.426;2022-12-29T11:22:19;11.30;;;1.92;;
63005;SDS011;53704;52.532;6.426;2022-12-29T11:24:47;8.02;;;2.03;;
63005;SDS011;53704;52.532;6.426;2022-12-29T11:27:24;6.85;;;1.80;;
63005;SDS011;53704;52.532;6.426;2022-12-29T11:29:52;7.93;;;1.63;;
63005;SDS011;53704;52.532;6.426;2022-12-29T11:32:19;8.60;;;2.28;;
63005;SDS011;53704;52.532;6.426;2022-12-29T11:34:50;7.93;;;2.20;;
63005;SDS011;53704;52.532;6.426;2022-12-29T11:37:17;6.60;;;1.58;;
63005;SDS011;53704;52.532;6.426;2022-12-29T11:39:56;9.32;;;2.00;;
63005;SDS011;53704;52.532;6.426;2022-12-29T11:42:35;6.18;;;2.00;;
63005;SDS011;53704;52.532;6.426;2022-12-29T11:45:18;15.57;;;2.53;;
63005;SDS011;53704;52.532;6.426;2022-12-29T11:47:47;16.92;;;2.40;;
63005;SDS011;53704;52.532;6.426;2022-12-29T11:50:19;8.07;;;2.25;;
63005;SDS011;53704;52.532;6.426;2022-12-29T11:52:45;13.23;;;2.60;;
63005;SDS011;53704;52.532;6.426;2022-12-29T11:55:17;11.30;;;2.35;;
63005;SDS011;53704;52.532;6.426;2022-12-29T11:57:47;8.15;;;2.30;;
63005;SDS011;53704;52.532;6.426;2022-12-29T12:00:19;13.32;;;3.30;;
63005;SDS011;53704;52.532;6.426;2022-12-29T12:08:18;10.88;;;2.47;;
63005;SDS011;53704;52.532;6.426;2022-12-29T12:11:22;11.77;;;3.08;;
63005;SDS011;53704;52.532;6.426;2022-12-29T12:16:29;11.02;;;3.60;;
63005;SDS011;53704;52.532;6.426;2022-12-29T12:21:43;6.78;;;1.95;;
63005;SDS011;53704;52.532;6.426;2022-12-29T12:27:01;13.38;;;2.72;;
63005;SDS011;53704;52.532;6.426;2022-12-29T12:29:38;14.23;;;2.63;;
63005;SDS011;53704;52.532;6.426;2022-12-29T12:35:52;12.20;;;2.63;;
63005;SDS011;53704;52.532;6.426;2022-12-29T12:38:27;10.52;;;2.50;;
63005;SDS011;53704;52.532;6.426;2022-12-29T12:41:08;10.27;;;2.13;;
63005;SDS011;53704;52.532;6.426;2022-12-29T12:43:41;10.27;;;2.72;;
63005;SDS011;53704;52.532;6.426;2022-12-29T12:49:31;11.95;;;3.00;;
63005;SDS011;53704;52.532;6.426;2022-12-29T13:00:16;25.20;;;4.47;;
63005;SDS011;53704;52.532;6.426;2022-12-29T13:19:31;20.42;;;4.47;;
63005;SDS011;53704;52.532;6.426;2022-12-29T13:22:11;26.50;;;5.78;;
63005;SDS011;53704;52.532;6.426;2022-12-29T13:27:44;13.27;;;3.78;;
63005;SDS011;53704;52.532;6.426;2022-12-29T13:30:23;25.77;;;3.97;;
63005;SDS011;53704;52.532;6.426;2022-12-29T13:33:00;8.88;;;2.92;;
63005;SDS011;53704;52.532;6.426;2022-12-29T13:38:24;14.60;;;3.03;;
63005;SDS011;53704;52.532;6.426;2022-12-29T13:40:56;13.70;;;3.05;;
63005;SDS011;53704;52.532;6.426;2022-12-29T13:43:27;12.63;;;3.92;;
63005;SDS011;53704;52.532;6.426;2022-12-29T13:46:05;22.20;;;3.50;;
63005;SDS011;53704;52.532;6.426;2022-12-29T13:48:46;16.08;;;3.25;;
63005;SDS011;53704;52.532;6.426;2022-12-29T13:51:19;15.55;;;3.65;;
63005;SDS011;53704;52.532;6.426;2022-12-29T13:56:59;31.73;;;4.18;;
63005;SDS011;53704;52.532;6.426;2022-12-29T14:04:58;22.15;;;4.13;;
63005;SDS011;53704;52.532;6.426;2022-12-29T14:07:26;28.35;;;4.07;;
63005;SDS011;53704;52.532;6.426;2022-12-29T14:09:54;19.05;;;4.22;;
63005;SDS011;53704;52.532;6.426;2022-12-29T14:12:28;20.05;;;3.72;;
63005;SDS011;53704;52.532;6.426;2022-12-29T14:15:05;20.80;;;3.70;;
63005;SDS011;53704;52.532;6.426;2022-12-29T14:17:39;21.73;;;3.47;;
63005;SDS011;53704;52.532;6.426;2022-12-29T14:20:17;16.05;;;3.53;;
63005;SDS011;53704;52.532;6.426;2022-12-29T14:22:59;17.42;;;3.78;;
63005;SDS011;53704;52.532;6.426;2022-12-29T14:28:40;12.63;;;3.05;;
63005;SDS011;53704;52.532;6.426;2022-12-29T14:33:39;8.80;;;2.90;;
63005;SDS011;53704;52.532;6.426;2022-12-29T14:36:25;15.68;;;3.67;;
63005;SDS011;53704;52.532;6.426;2022-12-29T14:38:59;12.43;;;2.92;;
63005;SDS011;53704;52.532;6.426;2022-12-29T14:44:00;18.15;;;3.80;;
63005;SDS011;53704;52.532;6.426;2022-12-29T14:49:28;13.32;;;2.83;;
63005;SDS011;53704;52.532;6.426;2022-12-29T14:52:16;22.35;;;3.17;;
63005;SDS011;53704;52.532;6.426;2022-12-29T14:54:46;11.65;;;3.25;;
63005;SDS011;53704;52.532;6.426;2022-12-29T14:57:21;18.48;;;3.58;;
63005;SDS011;53704;52.532;6.426;2022-12-29T14:59:52;19.52;;;4.03;;
63005;SDS011;53704;52.532;6.426;2022-12-29T15:02:21;18.73;;;3.78;;
63005;SDS011;53704;52.532;6.426;2022-12-29T15:04:49;18.92;;;3.85;;
63005;SDS011;53704;52.532;6.426;2022-12-29T15:07:16;21.73;;;3.80;;
63005;SDS011;53704;52.532;6.426;2022-12-29T15:09:58;22.20;;;3.55;;
63005;SDS011;53704;52.532;6.426;2022-12-29T15:12:32;15.60;;;4.30;;
63005;SDS011;53704;52.532;6.426;2022-12-29T15:15:00;10.75;;;2.88;;
63005;SDS011;53704;52.532;6.426;2022-12-29T15:17:30;20.73;;;3.72;;
63005;SDS011;53704;52.532;6.426;2022-12-29T15:19:58;14.60;;;3.28;;
63005;SDS011;53704;52.532;6.426;2022-12-29T15:22:26;20.50;;;4.18;;
63005;SDS011;53704;52.532;6.426;2022-12-29T15:24:53;19.02;;;3.00;;
63005;SDS011;53704;52.532;6.426;2022-12-29T15:27:21;17.67;;;4.35;;
63005;SDS011;53704;52.532;6.426;2022-12-29T15:29:48;8.05;;;2.85;;
63005;SDS011;53704;52.532;6.426;2022-12-29T15:32:22;19.13;;;3.88;;
63005;SDS011;53704;52.532;6.426;2022-12-29T15:34:53;17.90;;;3.63;;
63005;SDS011;53704;52.532;6.426;2022-12-29T15:37:24;21.00;;;3.80;;
63005;SDS011;53704;52.532;6.426;2022-12-29T15:39:52;25.35;;;4.95;;
63005;SDS011;53704;52.532;6.426;2022-12-29T15:44:53;13.32;;;3.05;;
63005;SDS011;53704;52.532;6.426;2022-12-29T15:47:24;16.13;;;3.92;;
63005;SDS011;53704;52.532;6.426;2022-12-29T15:49:54;15.38;;;3.20;;
63005;SDS011;53704;52.532;6.426;2022-12-29T15:52:39;15.98;;;3.03;;
63005;SDS011;53704;52.532;6.426;2022-12-29T15:55:05;7.78;;;2.47;;
63005;SDS011;53704;52.532;6.426;2022-12-29T15:57:42;12.80;;;3.00;;
63005;SDS011;53704;52.532;6.426;2022-12-29T16:02:54;6.07;;;2.15;;
63005;SDS011;53704;52.532;6.426;2022-12-29T16:05:22;7.28;;;2.10;;
63005;SDS011;53704;52.532;6.426;2022-12-29T16:07:51;2.95;;;1.60;;
63005;SDS011;53704;52.532;6.426;2022-12-29T16:13:24;3.55;;;1.25;;
63005;SDS011;53704;52.532;6.426;2022-12-29T16:15:55;4.78;;;1.02;;
63005;SDS011;53704;52.532;6.426;2022-12-29T16:18:26;6.32;;;1.27;;
63005;SDS011;53704;52.532;6.426;2022-12-29T16:20:54;5.28;;;1.40;;
63005;SDS011;53704;52.532;6.426;2022-12-29T16:23:25;3.10;;;1.48;;
63005;SDS011;53704;52.532;6.426;2022-12-29T16:25:53;3.92;;;1.40;;
63005;SDS011;53704;52.532;6.426;2022-12-29T16:28:34;4.22;;;2.30;;
63005;SDS011;53704;52.532;6.426;2022-12-29T16:31:05;4.95;;;1.80;;
63005;SDS011;53704;52.532;6.426;2022-12-29T16:33:39;6.50;;;1.20;;
63005;SDS011;53704;52.532;6.426;2022-12-29T16:36:29;7.13;;;2.08;;
63005;SDS011;53704;52.532;6.426;2022-12-29T16:39:18;7.97;;;2.17;;
63005;SDS011;53704;52.532;6.426;2022-12-29T16:41:53;6.90;;;3.40;;
63005;SDS011;53704;52.532;6.426;2022-12-29T16:44:20;8.00;;;5.50;;
63005;SDS011;53704;52.532;6.426;2022-12-29T16:49:26;15.40;;;4.20;;
63005;SDS011;53704;52.532;6.426;2022-12-29T16:51:52;9.88;;;2.92;;
63005;SDS011;53704;52.532;6.426;2022-12-29T16:54:32;13.88;;;4.68;;
63005;SDS011;53704;52.532;6.426;2022-12-29T16:57:01;4.95;;;2.78;;
63005;SDS011;53704;52.532;6.426;2022-12-29T16:59:34;8.88;;;3.08;;
63005;SDS011;53704;52.532;6.426;2022-12-29T17:02:06;13.73;;;4.90;;
63005;SDS011;53704;52.532;6.426;2022-12-29T17:04:38;11.07;;;3.58;;
63005;SDS011;53704;52.532;6.426;2022-12-29T17:07:07;13.13;;;3.50;;
63005;SDS011;53704;52.532;6.426;2022-12-29T17:09:52;11.88;;;3.40;;
63005;SDS011;53704;52.532;6.426;2022-12-29T17:12:36;14.68;;;6.18;;
63005;SDS011;53704;52.532;6.426;2022-12-29T17:15:14;16.45;;;6.82;;
63005;SDS011;53704;52.532;6.426;2022-12-29T17:17:41;15.15;;;4.32;;
63005;SDS011;53704;52.532;6.426;2022-12-29T17:22:42;14.23;;;3.90;;
63005;SDS011;53704;52.532;6.426;2022-12-29T17:25:15;16.02;;;4.40;;
63005;SDS011;53704;52.532;6.426;2022-12-29T17:30:18;11.60;;;3.15;;
63005;SDS011;53704;52.532;6.426;2022-12-29T17:33:03;14.55;;;4.28;;
63005;SDS011;53704;52.532;6.426;2022-12-29T17:35:30;18.17;;;4.60;;
63005;SDS011;53704;52.532;6.426;2022-12-29T17:37:56;9.85;;;3.83;;